sensor_id;sensor_type;location;lat;lon;timestamp;temperature;humidity
18575;DHT22;9417;16.484;102.872;2022-12-31T00:01:01;16.10;89.20
18575;DHT22;9417;16.484;102.872;2022-12-31T00:03:08;16.10;89.50
18575;DHT22;9417;16.484;102.872;2022-12-31T00:05:16;16.00;89.90
18575;DHT22;9417;16.484;102.872;2022-12-31T00:07:23;16.00;90.50
18575;DHT22;9417;16.484;102.872;2022-12-31T00:09:30;16.00;90.90
18575;DHT22;9417;16.484;102.872;2022-12-31T00:11:38;15.90;91.40
18575;DHT22;9417;16.484;102.872;2022-12-31T00:13:48;16.00;91.80
18575;DHT22;9417;16.484;102.872;2022-12-31T00:16:03;16.00;91.90
18575;DHT22;9417;16.484;102.872;2022-12-31T00:18:15;16.00;92.00
18575;DHT22;9417;16.484;102.872;2022-12-31T00:20:22;16.10;91.80
18575;DHT22;9417;16.484;102.872;2022-12-31T00:22:29;16.10;91.70
18575;DHT22;9417;16.484;102.872;2022-12-31T00:24:36;16.20;91.40
18575;DHT22;9417;16.484;102.872;2022-12-31T00:26:43;16.20;91.00
18575;DHT22;9417;16.484;102.872;2022-12-31T00:28:53;16.30;91.00
18575;DHT22;9417;16.484;102.872;2022-12-31T00:31:05;16.40;90.40
18575;DHT22;9417;16.484;102.872;2022-12-31T00:33:13;16.40;90.30
18575;DHT22;9417;16.484;102.872;2022-12-31T00:35:19;16.50;90.50
18575;DHT22;9417;16.484;102.872;2022-12-31T00:37:31;16.50;90.10
18575;DHT22;9417;16.484;102.872;2022-12-31T00:39:38;16.50;89.80
18575;DHT22;9417;16.484;102.872;2022-12-31T00:41:45;16.60;89.40
18575;DHT22;9417;16.484;102.872;2022-12-31T00:43:54;16.60;88.30
18575;DHT22;9417;16.484;102.872;2022-12-31T00:46:02;16.70;88.00
18575;DHT22;9417;16.484;102.872;2022-12-31T00:48:09;16.70;86.30
18575;DHT22;9417;16.484;102.872;2022-12-31T00:50:17;16.80;85.40
18575;DHT22;9417;16.484;102.872;2022-12-31T00:52:24;16.80;85.60
18575;DHT22;9417;16.484;102.872;2022-12-31T00:54:31;16.90;85.90
18575;DHT22;9417;16.484;102.872;2022-12-31T00:56:38;16.90;84.60
18575;DHT22;9417;16.484;102.872;2022-12-31T00:58:46;17.00;84.80
18575;DHT22;9417;16.484;102.872;2022-12-31T01:00:54;17.10;84.90
18575;DHT22;9417;16.484;102.872;2022-12-31T01:03:02;17.10;84.70
18575;DHT22;9417;16.484;102.872;2022-12-31T01:05:09;17.20;84.60
18575;DHT22;9417;16.484;102.872;2022-12-31T01:07:16;17.30;83.80
18575;DHT22;9417;16.484;102.872;2022-12-31T01:09:23;17.30;83.40
18575;DHT22;9417;16.484;102.872;2022-12-31T01:11:30;17.40;83.20
18575;DHT22;9417;16.484;102.872;2022-12-31T01:13:36;17.40;83.20
18575;DHT22;9417;16.484;102.872;2022-12-31T01:15:44;17.50;83.20
18575;DHT22;9417;16.484;102.872;2022-12-31T01:17:52;17.60;82.50
18575;DHT22;9417;16.484;102.872;2022-12-31T01:19:59;17.70;81.30
18575;DHT22;9417;16.484;102.872;2022-12-31T01:22:06;17.70;81.80
18575;DHT22;9417;16.484;102.872;2022-12-31T01:24:14;17.80;81.30
18575;DHT22;9417;16.484;102.872;2022-12-31T01:26:21;17.90;80.80
18575;DHT22;9417;16.484;102.872;2022-12-31T01:28:28;17.90;80.90
18575;DHT22;9417;16.484;102.872;2022-12-31T01:30:38;18.00;79.70
18575;DHT22;9417;16.484;102.872;2022-12-31T01:32:45;18.10;79.80
18575;DHT22;9417;16.484;102.872;2022-12-31T01:34:54;18.10;79.10
18575;DHT22;9417;16.484;102.872;2022-12-31T01:37:01;18.20;78.20
18575;DHT22;9417;16.484;102.872;2022-12-31T01:39:09;18.20;78.50
18575;DHT22;9417;16.484;102.872;2022-12-31T01:41:19;18.30;77.60
18575;DHT22;9417;16.484;102.872;2022-12-31T01:43:47;18.40;76.90
18575;DHT22;9417;16.484;102.872;2022-12-31T01:45:54;18.50;75.40
18575;DHT22;9417;16.484;102.872;2022-12-31T01:48:01;18.60;75.40
18575;DHT22;9417;16.484;102.872;2022-12-31T01:50:14;18.70;74.00
18575;DHT22;9417;16.484;102.872;2022-12-31T01:52:24;18.80;73.20
18575;DHT22;9417;16.484;102.872;2022-12-31T01:54:36;18.90;72.20
18575;DHT22;9417;16.484;102.872;2022-12-31T01:56:47;19.00;71.80
18575;DHT22;9417;16.484;102.872;2022-12-31T01:58:56;19.10;71.00
18575;DHT22;9417;16.484;102.872;2022-12-31T02:01:04;19.20;72.20
18575;DHT22;9417;16.484;102.872;2022-12-31T02:03:14;19.20;70.20
18575;DHT22;9417;16.484;102.872;2022-12-31T02:05:27;19.30;70.20
18575;DHT22;9417;16.484;102.872;2022-12-31T02:07:35;19.40;71.00
18575;DHT22;9417;16.484;102.872;2022-12-31T02:09:42;19.40;69.20
18575;DHT22;9417;16.484;102.872;2022-12-31T02:11:50;19.40;68.60
18575;DHT22;9417;16.484;102.872;2022-12-31T02:13:59;19.50;68.60
18575;DHT22;9417;16.484;102.872;2022-12-31T02:16:11;19.50;69.40
18575;DHT22;9417;16.484;102.872;2022-12-31T02:18:26;19.60;69.90
18575;DHT22;9417;16.484;102.872;2022-12-31T02:20:59;19.70;68.90
18575;DHT22;9417;16.484;102.872;2022-12-31T02:23:43;19.80;68.60
18575;DHT22;9417;16.484;102.872;2022-12-31T02:28:45;19.90;68.50
18575;DHT22;9417;16.484;102.872;2022-12-31T02:31:02;20.00;69.00
18575;DHT22;9417;16.484;102.872;2022-12-31T02:33:14;20.00;68.90
18575;DHT22;9417;16.484;102.872;2022-12-31T02:35:26;20.10;68.50
18575;DHT22;9417;16.484;102.872;2022-12-31T02:37:40;20.20;68.30
18575;DHT22;9417;16.484;102.872;2022-12-31T02:39:49;20.20;68.30
18575;DHT22;9417;16.484;102.872;2022-12-31T02:42:00;20.30;68.30
18575;DHT22;9417;16.484;102.872;2022-12-31T02:44:21;20.30;68.10
18575;DHT22;9417;16.484;102.872;2022-12-31T02:46:35;20.50;68.40
18575;DHT22;9417;16.484;102.872;2022-12-31T02:48:50;20.60;68.20
18575;DHT22;9417;16.484;102.872;2022-12-31T02:51:11;20.70;67.40
18575;DHT22;9417;16.484;102.872;2022-12-31T02:55:49;20.80;66.50
18575;DHT22;9417;16.484;102.872;2022-12-31T02:58:06;20.80;66.20
18575;DHT22;9417;16.484;102.872;2022-12-31T03:00:15;20.90;64.80
18575;DHT22;9417;16.484;102.872;2022-12-31T03:02:42;21.00;65.00
18575;DHT22;9417;16.484;102.872;2022-12-31T03:04:51;21.10;64.90
18575;DHT22;9417;16.484;102.872;2022-12-31T03:07:00;21.20;63.30
18575;DHT22;9417;16.484;102.872;2022-12-31T03:09:08;21.20;63.80
18575;DHT22;9417;16.484;102.872;2022-12-31T03:11:20;21.30;64.00
18575;DHT22;9417;16.484;102.872;2022-12-31T03:13:40;21.40;63.50
18575;DHT22;9417;16.484;102.872;2022-12-31T03:15:47;21.40;63.50
18575;DHT22;9417;16.484;102.872;2022-12-31T03:17:58;21.60;63.90
18575;DHT22;9417;16.484;102.872;2022-12-31T03:20:06;21.60;62.30
18575;DHT22;9417;16.484;102.872;2022-12-31T03:22:30;21.70;62.60
18575;DHT22;9417;16.484;102.872;2022-12-31T03:24:36;21.80;61.80
18575;DHT22;9417;16.484;102.872;2022-12-31T03:27:00;21.80;62.00
18575;DHT22;9417;16.484;102.872;2022-12-31T03:29:07;21.90;62.50
18575;DHT22;9417;16.484;102.872;2022-12-31T03:31:14;21.90;61.50
18575;DHT22;9417;16.484;102.872;2022-12-31T03:33:23;22.00;62.10
18575;DHT22;9417;16.484;102.872;2022-12-31T03:35:33;22.10;61.80
18575;DHT22;9417;16.484;102.872;2022-12-31T03:37:42;22.10;61.40
18575;DHT22;9417;16.484;102.872;2022-12-31T03:39:49;22.10;61.40
18575;DHT22;9417;16.484;102.872;2022-12-31T03:41:56;22.20;62.00
18575;DHT22;9417;16.484;102.872;2022-12-31T03:44:04;22.30;61.80
18575;DHT22;9417;16.484;102.872;2022-12-31T03:46:11;22.40;61.60
18575;DHT22;9417;16.484;102.872;2022-12-31T03:48:18;22.50;60.50
18575;DHT22;9417;16.484;102.872;2022-12-31T03:50:27;22.50;60.90
18575;DHT22;9417;16.484;102.872;2022-12-31T03:52:35;22.60;61.40
18575;DHT22;9417;16.484;102.872;2022-12-31T03:54:42;22.70;61.10
18575;DHT22;9417;16.484;102.872;2022-12-31T03:56:49;22.80;60.50
18575;DHT22;9417;16.484;102.872;2022-12-31T03:59:02;22.90;60.40
18575;DHT22;9417;16.484;102.872;2022-12-31T04:01:09;23.00;59.60
18575;DHT22;9417;16.484;102.872;2022-12-31T04:03:16;23.00;58.90
18575;DHT22;9417;16.484;102.872;2022-12-31T04:05:24;23.10;58.70
18575;DHT22;9417;16.484;102.872;2022-12-31T04:07:33;23.10;58.60
18575;DHT22;9417;16.484;102.872;2022-12-31T04:09:40;23.10;58.50
18575;DHT22;9417;16.484;102.872;2022-12-31T04:11:47;23.20;58.90
18575;DHT22;9417;16.484;102.872;2022-12-31T04:13:54;23.20;58.20
18575;DHT22;9417;16.484;102.872;2022-12-31T04:16:03;23.40;58.00
18575;DHT22;9417;16.484;102.872;2022-12-31T04:18:10;23.50;58.80
18575;DHT22;9417;16.484;102.872;2022-12-31T04:20:17;23.60;58.10
18575;DHT22;9417;16.484;102.872;2022-12-31T04:22:24;23.60;58.00
18575;DHT22;9417;16.484;102.872;2022-12-31T04:24:33;23.70;57.50
18575;DHT22;9417;16.484;102.872;2022-12-31T04:26:40;23.70;57.10
18575;DHT22;9417;16.484;102.872;2022-12-31T04:28:48;23.70;57.50
18575;DHT22;9417;16.484;102.872;2022-12-31T04:30:55;23.80;57.30
18575;DHT22;9417;16.484;102.872;2022-12-31T04:33:02;23.80;56.90
18575;DHT22;9417;16.484;102.872;2022-12-31T04:35:09;23.80;57.10
18575;DHT22;9417;16.484;102.872;2022-12-31T04:37:17;23.90;56.90
18575;DHT22;9417;16.484;102.872;2022-12-31T04:39:24;24.00;56.50
18575;DHT22;9417;16.484;102.872;2022-12-31T04:41:33;24.00;56.40
18575;DHT22;9417;16.484;102.872;2022-12-31T04:43:40;24.10;56.20
18575;DHT22;9417;16.484;102.872;2022-12-31T04:45:47;24.10;55.30
18575;DHT22;9417;16.484;102.872;2022-12-31T04:47:55;24.20;56.10
18575;DHT22;9417;16.484;102.872;2022-12-31T04:50:02;24.30;55.80
18575;DHT22;9417;16.484;102.872;2022-12-31T04:52:09;24.40;56.00
18575;DHT22;9417;16.484;102.872;2022-12-31T04:54:16;24.40;56.00
18575;DHT22;9417;16.484;102.872;2022-12-31T04:56:24;24.50;54.90
18575;DHT22;9417;16.484;102.872;2022-12-31T04:58:34;24.50;55.40
18575;DHT22;9417;16.484;102.872;2022-12-31T05:00:41;24.50;55.70
18575;DHT22;9417;16.484;102.872;2022-12-31T05:02:53;24.60;55.70
18575;DHT22;9417;16.484;102.872;2022-12-31T05:05:00;24.60;55.40
18575;DHT22;9417;16.484;102.872;2022-12-31T05:07:07;24.70;55.40
18575;DHT22;9417;16.484;102.872;2022-12-31T05:09:14;24.70;55.60
18575;DHT22;9417;16.484;102.872;2022-12-31T05:11:21;24.80;53.40
18575;DHT22;9417;16.484;102.872;2022-12-31T05:13:28;24.80;53.50
18575;DHT22;9417;16.484;102.872;2022-12-31T05:15:38;24.80;53.90
18575;DHT22;9417;16.484;102.872;2022-12-31T05:17:45;24.80;54.60
18575;DHT22;9417;16.484;102.872;2022-12-31T05:19:52;24.90;54.60
18575;DHT22;9417;16.484;102.872;2022-12-31T05:21:59;24.90;54.90
18575;DHT22;9417;16.484;102.872;2022-12-31T05:24:23;25.00;54.50
18575;DHT22;9417;16.484;102.872;2022-12-31T05:26:30;25.10;54.80
18575;DHT22;9417;16.484;102.872;2022-12-31T05:28:38;25.10;54.10
18575;DHT22;9417;16.484;102.872;2022-12-31T05:30:47;25.10;54.30
18575;DHT22;9417;16.484;102.872;2022-12-31T05:32:55;25.10;53.70
18575;DHT22;9417;16.484;102.872;2022-12-31T05:35:02;25.10;53.70
18575;DHT22;9417;16.484;102.872;2022-12-31T05:37:09;25.10;53.40
18575;DHT22;9417;16.484;102.872;2022-12-31T05:39:16;25.10;53.80
18575;DHT22;9417;16.484;102.872;2022-12-31T05:41:23;25.20;54.00
18575;DHT22;9417;16.484;102.872;2022-12-31T05:43:31;25.30;53.70
18575;DHT22;9417;16.484;102.872;2022-12-31T05:45:38;25.30;52.60
18575;DHT22;9417;16.484;102.872;2022-12-31T05:47:47;25.30;52.60
18575;DHT22;9417;16.484;102.872;2022-12-31T05:49:54;25.30;53.50
18575;DHT22;9417;16.484;102.872;2022-12-31T05:52:02;25.40;53.90
18575;DHT22;9417;16.484;102.872;2022-12-31T05:54:09;25.50;53.70
18575;DHT22;9417;16.484;102.872;2022-12-31T05:56:16;25.60;53.50
18575;DHT22;9417;16.484;102.872;2022-12-31T05:58:24;25.60;53.50
18575;DHT22;9417;16.484;102.872;2022-12-31T06:00:31;25.70;53.00
18575;DHT22;9417;16.484;102.872;2022-12-31T06:02:38;25.70;52.70
18575;DHT22;9417;16.484;102.872;2022-12-31T06:04:47;25.80;52.90
18575;DHT22;9417;16.484;102.872;2022-12-31T06:06:54;25.80;51.50
18575;DHT22;9417;16.484;102.872;2022-12-31T06:09:01;25.80;52.10
18575;DHT22;9417;16.484;102.872;2022-12-31T06:11:08;25.80;51.10
18575;DHT22;9417;16.484;102.872;2022-12-31T06:13:16;25.80;52.30
18575;DHT22;9417;16.484;102.872;2022-12-31T06:15:23;25.80;50.50
18575;DHT22;9417;16.484;102.872;2022-12-31T06:17:30;25.80;51.70
18575;DHT22;9417;16.484;102.872;2022-12-31T06:19:37;25.80;51.30
18575;DHT22;9417;16.484;102.872;2022-12-31T06:21:45;25.90;51.30
18575;DHT22;9417;16.484;102.872;2022-12-31T06:23:52;25.90;51.60
18575;DHT22;9417;16.484;102.872;2022-12-31T06:26:01;26.00;51.70
18575;DHT22;9417;16.484;102.872;2022-12-31T06:28:08;26.00;51.80
18575;DHT22;9417;16.484;102.872;2022-12-31T06:30:23;26.10;51.30
18575;DHT22;9417;16.484;102.872;2022-12-31T06:32:30;26.10;51.70
18575;DHT22;9417;16.484;102.872;2022-12-31T06:34:38;26.20;51.60
18575;DHT22;9417;16.484;102.872;2022-12-31T06:36:47;26.30;51.30
18575;DHT22;9417;16.484;102.872;2022-12-31T06:38:54;26.30;50.80
18575;DHT22;9417;16.484;102.872;2022-12-31T06:41:03;26.30;50.40
18575;DHT22;9417;16.484;102.872;2022-12-31T06:43:10;26.20;50.30
18575;DHT22;9417;16.484;102.872;2022-12-31T06:45:17;26.20;50.70
18575;DHT22;9417;16.484;102.872;2022-12-31T06:47:24;26.20;50.10
18575;DHT22;9417;16.484;102.872;2022-12-31T06:49:31;26.20;50.50
18575;DHT22;9417;16.484;102.872;2022-12-31T06:51:38;26.20;50.50
18575;DHT22;9417;16.484;102.872;2022-12-31T06:53:48;26.20;50.20
18575;DHT22;9417;16.484;102.872;2022-12-31T06:55:56;26.20;51.10
18575;DHT22;9417;16.484;102.872;2022-12-31T06:58:04;26.20;50.40
18575;DHT22;9417;16.484;102.872;2022-12-31T07:00:12;26.20;50.50
18575;DHT22;9417;16.484;102.872;2022-12-31T07:05:26;26.30;50.60
18575;DHT22;9417;16.484;102.872;2022-12-31T07:07:39;26.20;49.00
18575;DHT22;9417;16.484;102.872;2022-12-31T07:09:56;26.20;50.20
18575;DHT22;9417;16.484;102.872;2022-12-31T07:12:25;26.30;50.20
18575;DHT22;9417;16.484;102.872;2022-12-31T07:14:39;26.30;49.90
18575;DHT22;9417;16.484;102.872;2022-12-31T07:16:54;26.30;49.90
18575;DHT22;9417;16.484;102.872;2022-12-31T07:19:12;26.30;49.60
18575;DHT22;9417;16.484;102.872;2022-12-31T07:21:29;26.30;49.90
18575;DHT22;9417;16.484;102.872;2022-12-31T07:23:39;26.30;49.90
18575;DHT22;9417;16.484;102.872;2022-12-31T07:25:53;26.40;50.50
18575;DHT22;9417;16.484;102.872;2022-12-31T07:28:08;26.40;49.70
18575;DHT22;9417;16.484;102.872;2022-12-31T07:30:21;26.30;50.10
18575;DHT22;9417;16.484;102.872;2022-12-31T07:32:40;26.40;49.10
18575;DHT22;9417;16.484;102.872;2022-12-31T07:34:57;26.30;49.50
18575;DHT22;9417;16.484;102.872;2022-12-31T07:37:09;26.30;49.90
18575;DHT22;9417;16.484;102.872;2022-12-31T07:39:25;26.30;49.70
18575;DHT22;9417;16.484;102.872;2022-12-31T07:41:46;26.30;49.80
18575;DHT22;9417;16.484;102.872;2022-12-31T07:44:02;26.20;49.10
18575;DHT22;9417;16.484;102.872;2022-12-31T07:46:18;26.20;49.60
18575;DHT22;9417;16.484;102.872;2022-12-31T07:48:29;26.20;50.10
18575;DHT22;9417;16.484;102.872;2022-12-31T07:50:36;26.20;50.10
18575;DHT22;9417;16.484;102.872;2022-12-31T07:52:44;26.20;49.20
18575;DHT22;9417;16.484;102.872;2022-12-31T07:54:52;26.20;50.00
18575;DHT22;9417;16.484;102.872;2022-12-31T07:57:01;26.20;49.80
18575;DHT22;9417;16.484;102.872;2022-12-31T07:59:16;26.30;50.00
18575;DHT22;9417;16.484;102.872;2022-12-31T08:01:33;26.20;48.70
18575;DHT22;9417;16.484;102.872;2022-12-31T08:03:50;26.20;48.60
18575;DHT22;9417;16.484;102.872;2022-12-31T08:06:10;26.20;48.80
18575;DHT22;9417;16.484;102.872;2022-12-31T08:08:25;26.20;48.30
18575;DHT22;9417;16.484;102.872;2022-12-31T08:10:42;26.20;49.20
18575;DHT22;9417;16.484;102.872;2022-12-31T08:12:57;26.20;49.70
18575;DHT22;9417;16.484;102.872;2022-12-31T08:15:13;26.20;49.30
18575;DHT22;9417;16.484;102.872;2022-12-31T08:17:21;26.20;49.10
18575;DHT22;9417;16.484;102.872;2022-12-31T08:19:30;26.20;50.00
18575;DHT22;9417;16.484;102.872;2022-12-31T08:21:45;26.20;49.30
18575;DHT22;9417;16.484;102.872;2022-12-31T08:24:00;26.20;48.10
18575;DHT22;9417;16.484;102.872;2022-12-31T08:26:18;26.20;48.00
18575;DHT22;9417;16.484;102.872;2022-12-31T08:28:37;26.30;48.90
18575;DHT22;9417;16.484;102.872;2022-12-31T08:30:53;26.20;47.90
18575;DHT22;9417;16.484;102.872;2022-12-31T08:33:09;26.20;48.80
18575;DHT22;9417;16.484;102.872;2022-12-31T08:35:29;26.20;48.80
18575;DHT22;9417;16.484;102.872;2022-12-31T08:37:41;26.10;48.10
18575;DHT22;9417;16.484;102.872;2022-12-31T08:39:58;26.10;48.10
18575;DHT22;9417;16.484;102.872;2022-12-31T08:42:16;26.10;47.80
18575;DHT22;9417;16.484;102.872;2022-12-31T08:44:35;26.10;48.30
18575;DHT22;9417;16.484;102.872;2022-12-31T08:46:52;26.10;47.70
18575;DHT22;9417;16.484;102.872;2022-12-31T08:49:01;26.00;48.00
18575;DHT22;9417;16.484;102.872;2022-12-31T08:51:13;26.10;48.60
18575;DHT22;9417;16.484;102.872;2022-12-31T08:53:24;26.00;48.40
18575;DHT22;9417;16.484;102.872;2022-12-31T08:55:31;26.00;49.10
18575;DHT22;9417;16.484;102.872;2022-12-31T08:57:43;26.00;49.50
18575;DHT22;9417;16.484;102.872;2022-12-31T09:00:00;26.00;49.10
18575;DHT22;9417;16.484;102.872;2022-12-31T09:02:24;26.00;49.20
18575;DHT22;9417;16.484;102.872;2022-12-31T09:04:48;25.90;49.60
18575;DHT22;9417;16.484;102.872;2022-12-31T09:06:59;25.90;50.20
18575;DHT22;9417;16.484;102.872;2022-12-31T09:09:12;25.90;49.70
18575;DHT22;9417;16.484;102.872;2022-12-31T09:11:28;25.90;50.10
18575;DHT22;9417;16.484;102.872;2022-12-31T09:13:46;25.90;50.20
18575;DHT22;9417;16.484;102.872;2022-12-31T09:16:03;25.80;50.30
18575;DHT22;9417;16.484;102.872;2022-12-31T09:18:14;25.80;49.50
18575;DHT22;9417;16.484;102.872;2022-12-31T09:20:24;25.70;50.30
18575;DHT22;9417;16.484;102.872;2022-12-31T09:22:46;25.70;50.30
18575;DHT22;9417;16.484;102.872;2022-12-31T09:24:53;25.60;50.40
18575;DHT22;9417;16.484;102.872;2022-12-31T09:27:04;25.60;50.90
18575;DHT22;9417;16.484;102.872;2022-12-31T09:29:24;25.50;50.90
18575;DHT22;9417;16.484;102.872;2022-12-31T09:31:38;25.50;51.20
18575;DHT22;9417;16.484;102.872;2022-12-31T09:33:50;25.40;50.80
18575;DHT22;9417;16.484;102.872;2022-12-31T09:36:04;25.40;51.10
18575;DHT22;9417;16.484;102.872;2022-12-31T09:38:15;25.40;51.00
18575;DHT22;9417;16.484;102.872;2022-12-31T09:43:25;25.40;50.60
18575;DHT22;9417;16.484;102.872;2022-12-31T09:46:03;25.40;50.90
18575;DHT22;9417;16.484;102.872;2022-12-31T09:48:42;25.40;51.40
18575;DHT22;9417;16.484;102.872;2022-12-31T09:51:02;25.30;51.40
18575;DHT22;9417;16.484;102.872;2022-12-31T09:53:30;25.30;51.80
18575;DHT22;9417;16.484;102.872;2022-12-31T09:55:47;25.20;52.00
18575;DHT22;9417;16.484;102.872;2022-12-31T09:58:00;25.20;51.60
18575;DHT22;9417;16.484;102.872;2022-12-31T10:00:14;25.20;51.60
18575;DHT22;9417;16.484;102.872;2022-12-31T10:02:41;25.20;51.80
18575;DHT22;9417;16.484;102.872;2022-12-31T10:04:59;25.10;52.20
18575;DHT22;9417;16.484;102.872;2022-12-31T10:07:19;25.10;52.30
18575;DHT22;9417;16.484;102.872;2022-12-31T10:09:40;25.10;52.80
18575;DHT22;9417;16.484;102.872;2022-12-31T10:12:12;25.00;53.10
18575;DHT22;9417;16.484;102.872;2022-12-31T10:14:36;25.00;53.10
18575;DHT22;9417;16.484;102.872;2022-12-31T10:17:01;24.90;52.90
18575;DHT22;9417;16.484;102.872;2022-12-31T10:19:40;24.90;53.10
18575;DHT22;9417;16.484;102.872;2022-12-31T10:22:02;24.90;52.90
18575;DHT22;9417;16.484;102.872;2022-12-31T10:24:27;24.80;53.40
18575;DHT22;9417;16.484;102.872;2022-12-31T10:26:52;24.80;53.70
18575;DHT22;9417;16.484;102.872;2022-12-31T10:29:11;24.70;53.80
18575;DHT22;9417;16.484;102.872;2022-12-31T10:31:37;24.70;54.10
18575;DHT22;9417;16.484;102.872;2022-12-31T10:33:49;24.60;54.00
18575;DHT22;9417;16.484;102.872;2022-12-31T10:36:07;24.60;54.40
18575;DHT22;9417;16.484;102.872;2022-12-31T10:38:26;24.50;54.30
18575;DHT22;9417;16.484;102.872;2022-12-31T10:40:55;24.50;54.40
18575;DHT22;9417;16.484;102.872;2022-12-31T10:43:33;24.50;54.70
18575;DHT22;9417;16.484;102.872;2022-12-31T10:49:24;24.40;54.80
18575;DHT22;9417;16.484;102.872;2022-12-31T10:52:10;24.40;54.80
18575;DHT22;9417;16.484;102.872;2022-12-31T10:57:22;24.30;55.30
18575;DHT22;9417;16.484;102.872;2022-12-31T11:00:13;24.20;55.40
18575;DHT22;9417;16.484;102.872;2022-12-31T11:05:30;24.10;55.60
18575;DHT22;9417;16.484;102.872;2022-12-31T11:07:48;24.10;55.40
18575;DHT22;9417;16.484;102.872;2022-12-31T11:10:31;24.10;55.50
18575;DHT22;9417;16.484;102.872;2022-12-31T11:15:46;24.00;55.50
18575;DHT22;9417;16.484;102.872;2022-12-31T11:18:06;24.00;55.90
18575;DHT22;9417;16.484;102.872;2022-12-31T11:20:31;24.00;56.10
18575;DHT22;9417;16.484;102.872;2022-12-31T11:22:51;23.90;56.40
18575;DHT22;9417;16.484;102.872;2022-12-31T11:25:22;23.90;56.20
18575;DHT22;9417;16.484;102.872;2022-12-31T11:27:54;23.90;57.20
18575;DHT22;9417;16.484;102.872;2022-12-31T11:30:12;23.80;57.10
18575;DHT22;9417;16.484;102.872;2022-12-31T11:32:42;23.80;57.40
18575;DHT22;9417;16.484;102.872;2022-12-31T11:35:17;23.80;57.40
18575;DHT22;9417;16.484;102.872;2022-12-31T11:37:35;23.70;57.70
18575;DHT22;9417;16.484;102.872;2022-12-31T11:39:52;23.70;57.30
18575;DHT22;9417;16.484;102.872;2022-12-31T11:42:15;23.70;57.40
18575;DHT22;9417;16.484;102.872;2022-12-31T11:44:35;23.70;57.60
18575;DHT22;9417;16.484;102.872;2022-12-31T11:47:02;23.70;58.00
18575;DHT22;9417;16.484;102.872;2022-12-31T11:49:25;23.60;58.20
18575;DHT22;9417;16.484;102.872;2022-12-31T11:51:49;23.60;58.20
18575;DHT22;9417;16.484;102.872;2022-12-31T11:54:27;23.60;58.50
18575;DHT22;9417;16.484;102.872;2022-12-31T11:56:39;23.50;59.10
18575;DHT22;9417;16.484;102.872;2022-12-31T11:58:48;23.50;58.80
18575;DHT22;9417;16.484;102.872;2022-12-31T12:01:02;23.50;59.30
18575;DHT22;9417;16.484;102.872;2022-12-31T12:03:11;23.40;59.60
18575;DHT22;9417;16.484;102.872;2022-12-31T12:05:19;23.40;59.80
18575;DHT22;9417;16.484;102.872;2022-12-31T12:07:28;23.30;60.20
18575;DHT22;9417;16.484;102.872;2022-12-31T12:09:35;23.30;60.10
18575;DHT22;9417;16.484;102.872;2022-12-31T12:11:42;23.20;59.70
18575;DHT22;9417;16.484;102.872;2022-12-31T12:13:49;23.30;59.40
18575;DHT22;9417;16.484;102.872;2022-12-31T12:16:00;23.20;59.50
18575;DHT22;9417;16.484;102.872;2022-12-31T12:18:13;23.20;59.90
18575;DHT22;9417;16.484;102.872;2022-12-31T12:20:29;23.20;59.80
18575;DHT22;9417;16.484;102.872;2022-12-31T12:22:47;23.10;59.60
18575;DHT22;9417;16.484;102.872;2022-12-31T12:24:56;23.10;59.40
18575;DHT22;9417;16.484;102.872;2022-12-31T12:27:04;23.10;59.40
18575;DHT22;9417;16.484;102.872;2022-12-31T12:29:14;23.10;59.50
18575;DHT22;9417;16.484;102.872;2022-12-31T12:31:23;23.10;59.60
18575;DHT22;9417;16.484;102.872;2022-12-31T12:33:40;23.00;59.70
18575;DHT22;9417;16.484;102.872;2022-12-31T12:35:48;23.00;60.00
18575;DHT22;9417;16.484;102.872;2022-12-31T12:38:04;23.00;60.10
18575;DHT22;9417;16.484;102.872;2022-12-31T12:40:20;22.90;60.30
18575;DHT22;9417;16.484;102.872;2022-12-31T12:42:46;22.90;60.30
18575;DHT22;9417;16.484;102.872;2022-12-31T12:45:06;22.90;61.20
18575;DHT22;9417;16.484;102.872;2022-12-31T12:47:16;22.90;60.70
18575;DHT22;9417;16.484;102.872;2022-12-31T12:49:27;22.80;60.80
18575;DHT22;9417;16.484;102.872;2022-12-31T12:51:50;22.80;60.80
18575;DHT22;9417;16.484;102.872;2022-12-31T12:54:10;22.80;60.70
18575;DHT22;9417;16.484;102.872;2022-12-31T12:56:27;22.70;61.00
18575;DHT22;9417;16.484;102.872;2022-12-31T12:58:51;22.70;61.20
18575;DHT22;9417;16.484;102.872;2022-12-31T13:01:09;22.70;61.30
18575;DHT22;9417;16.484;102.872;2022-12-31T13:06:27;22.60;61.70
18575;DHT22;9417;16.484;102.872;2022-12-31T13:09:07;22.50;61.80
18575;DHT22;9417;16.484;102.872;2022-12-31T13:11:28;22.50;62.00
18575;DHT22;9417;16.484;102.872;2022-12-31T13:13:39;22.40;62.50
18575;DHT22;9417;16.484;102.872;2022-12-31T13:15:55;22.40;62.60
18575;DHT22;9417;16.484;102.872;2022-12-31T13:18:11;22.30;62.50
18575;DHT22;9417;16.484;102.872;2022-12-31T13:20:28;22.30;62.40
18575;DHT22;9417;16.484;102.872;2022-12-31T13:22:39;22.30;62.40
18575;DHT22;9417;16.484;102.872;2022-12-31T13:24:51;22.30;62.50
18575;DHT22;9417;16.484;102.872;2022-12-31T13:27:09;22.30;62.70
18575;DHT22;9417;16.484;102.872;2022-12-31T13:29:23;22.30;62.50
18575;DHT22;9417;16.484;102.872;2022-12-31T13:31:33;22.30;62.60
18575;DHT22;9417;16.484;102.872;2022-12-31T13:33:44;22.20;62.50
18575;DHT22;9417;16.484;102.872;2022-12-31T13:35:56;22.20;62.70
18575;DHT22;9417;16.484;102.872;2022-12-31T13:38:12;22.20;62.90
18575;DHT22;9417;16.484;102.872;2022-12-31T13:40:25;22.10;63.10
18575;DHT22;9417;16.484;102.872;2022-12-31T13:42:40;22.10;63.40
18575;DHT22;9417;16.484;102.872;2022-12-31T13:44:52;22.10;63.70
18575;DHT22;9417;16.484;102.872;2022-12-31T13:47:03;22.00;63.50
18575;DHT22;9417;16.484;102.872;2022-12-31T13:49:15;22.00;63.60
18575;DHT22;9417;16.484;102.872;2022-12-31T13:51:32;22.00;63.60
18575;DHT22;9417;16.484;102.872;2022-12-31T13:53:46;21.90;64.00
18575;DHT22;9417;16.484;102.872;2022-12-31T13:55:59;22.00;63.80
18575;DHT22;9417;16.484;102.872;2022-12-31T13:58:13;22.00;63.90
18575;DHT22;9417;16.484;102.872;2022-12-31T14:00:27;21.90;63.90
18575;DHT22;9417;16.484;102.872;2022-12-31T14:02:42;21.90;63.90
18575;DHT22;9417;16.484;102.872;2022-12-31T14:04:53;21.90;63.80
18575;DHT22;9417;16.484;102.872;2022-12-31T14:07:08;21.80;64.30
18575;DHT22;9417;16.484;102.872;2022-12-31T14:09:20;21.80;64.00
18575;DHT22;9417;16.484;102.872;2022-12-31T14:11:42;21.80;64.00
18575;DHT22;9417;16.484;102.872;2022-12-31T14:14:01;21.70;64.00